Date,TemperatureHighF,TemperatureAvgF,TemperatureLowF,DewpointHighF,DewpointAvgF,DewpointLowF,HumidityHigh,HumidityAvg,HumidityLow,PressureMaxIn,PressureMinIn,WindSpeedMaxMPH,WindSpeedAvgMPH,GustSpeedMaxMPH,PrecipitationSumIn
2013-10-1,84.9,53.5,46.0,58.0,48.4,45.0,98,87,32,29.71,29.56,6,0,6,0.00
2013-10-2,86.9,65.3,50.9,63.5,55.5,50.1,98,75,38,29.68,29.53,11,0,11,0.00
2013-10-3,85.8,63.7,51.3,56.0,50.9,43.5,96,69,29,29.82,29.68,4,0,7,0.00
2013-10-4,62.8,57.7,50.4,59.3,54.9,48.5,98,91,78,29.82,29.74,2,0,2,0.03
2013-10-5,69.3,60.5,56.7,58.0,55.4,52.5,98,84,62,29.88,29.76,4,0,4,0.00
2013-10-6,57.7,54.0,50.7,55.8,52.8,49.9,98,96,90,29.97,29.82,3,0,4,0.21
2013-10-7,77.0,64.0,54.7,73.0,61.7,54.1,98,93,70,29.85,29.53,7,1,9,0.25
2013-10-8,72.9,55.9,45.9,57.6,44.0,34.9,98,69,34,30.12,29.62,9,1,9,0.00
2013-10-9,70.5,50.9,40.1,46.8,41.4,37.3,93,73,39,30.21,30.06,5,0,5,0.00
2013-10-10,65.8,49.5,39.2,54.4,44.0,38.2,98,84,50,30.12,29.88,3,0,3,0.00
2013-10-11,76.3,57.2,45.7,54.4,46.2,39.4,98,72,31,29.91,29.82,4,0,4,0.00
2013-10-12,56.7,52.8,48.6,54.5,51.3,47.0,98,95,89,30.12,29.85,5,1,5,0.00
2013-10-13,63.1,47.5,40.5,55.3,45.1,39.1,98,92,54,30.18,30.09,6,0,6,7.01
2013-10-14,72.3,48.9,35.1,55.6,39.9,34.5,98,78,35,30.12,29.94,4,0,4,0.00
2013-10-15,63.0,56.0,51.3,53.0,50.3,47.8,97,82,61,30.00,29.88,4,0,4,0.00
2013-10-16,63.3,55.7,51.8,55.3,51.6,47.3,98,87,57,29.91,29.62,3,0,3,0.00
2013-10-17,82.8,61.2,51.8,63.8,50.7,40.6,98,73,38,29.62,29.41,4,0,4,0.00
2013-10-18,75.7,60.2,47.5,59.9,47.9,33.3,98,67,35,29.62,29.29,8,1,8,0.00
2013-10-19,75.0,54.9,38.5,49.2,39.3,33.3,91,60,33,29.68,29.47,4,0,4,0.00
2013-10-20,68.9,54.1,40.6,45.6,38.6,27.8,93,60,32,29.71,29.38,10,1,10,0.00
2013-10-21,75.9,51.3,35.4,44.3,36.7,30.6,93,61,32,29.79,29.68,6,0,6,0.00
2013-10-22,63.9,51.3,42.8,52.7,44.1,35.5,94,77,55,29.71,29.41,6,0,6,0.00
2013-10-23,57.0,44.4,34.2,40.1,32.7,30.6,93,66,42,29.50,29.26,4,0,4,0.00
2013-10-24,62.4,45.1,34.3,34.1,28.1,20.1,84,54,30,29.59,29.32,10,1,10,0.00
2013-10-25,54.3,39.7,30.7,34.7,25.4,19.1,88,58,38,29.82,29.53,8,1,8,0.00
2013-10-26,60.1,41.8,28.4,37.4,26.4,20.1,89,58,29,29.82,29.56,11,1,11,0.00
2013-10-28,66.2,43.2,30.2,36.9,27.4,17.4,89,57,33,30.03,29.71,8,1,8,0.00
2013-10-29,58.8,37.5,27.3,28.3,16.7,-8.5,71,47,8,30.12,30.00,4,0,5,0.00
2013-10-30,54.7,37.5,28.6,39.3,27.2,16.9,87,67,49,30.06,29.85,3,0,3,0.00
2013-10-31,58.1,42.9,29.8,57.5,40.7,27.5,98,92,85,29.91,29.50,4,0,4,0.13